الصفحة الرئيسية
METAR-TAF:

METAR-TAF

مطار :

إنديانابوليس, إنديانا, الولايات المتحدة

مطار إنديانابوليس الدولي

دائرة عرض: 39-43-30N, خط طول: 086-16-55W, ارتفاع: 243 متر

مراقبة الطقس الحالي

تاريخ ووقت الإصدار 23 دقيقة قبل الساعة 10:54UTC
ريح 9 عقدة من الغرب/الجنوب الغربي
درجة الحرارة -19°درجة مئوية
الرطوبة 77%
ضغط 1032 hPa
الرؤية: 16.1 كم
سماء صافية

METAR: KIND 161054Z 24009KT 10SM CLR M19/M22 A3048 RMK AO2 SLP340 T11941217

زمن: 06:17 (11:17 UTC)

توقعات

تاريخ ووقت الإصدار 3ساعات و 1 دقيقة قبل الساعة 08:16UTC
التوقعات صالحة من16 الساعة 08 UTC إلى 17 الساعة 12 UTC
ريح 8 عقدة من الغرب
الرؤية: 10 كم
غيوم قليلة على ارتفاع 1000 قدم
غيوم متفرقة على ارتفاع 25000 قدم
من 17 الساعة 0000 UTC
ريح 7 عقدة من الغرب
الرؤية: 8.0 كم
غيوم مفككة على ارتفاع 1500 قدم
غشاء
من 17 الساعة 0500 UTC
ريح 6 عقدة من الغرب
الرؤية: 10 كم
غيوم مفككة على ارتفاع 4000 قدم

TAF: KIND 160816Z 1608/1712 26008KT P6SM FEW010 SCT250 FM170000 26007KT 5SM BR BKN015 FM170500 27006KT P6SM BKN040

أرصاد الطقس والتوقعات من أكثر من 4000 مطار (تقارير الطقس للمطار METAR والتنبؤ بالطقس بالمطارTAF).

المحطات المتاحة هي النقط الصفراء والحمراء على الخريطة.

حرك المؤشر فوق النقطة لمعرفة اسم المحطة.

ثم انقر لمعرفة أرصاد وتوقعات الطقس.

لتغيير الخارطة: اضغط على الأزرار الخضراء مع رمز الصليب الأسود للتكبير. على الزر الأخضر مع شرطة للتصغير، أو على الأسهم الخضراء للخرائط المجاورة.


METAR-TAF: